Dover, NJ (07802)

11:48 AM EDT on September 22, 2014 (GMT -0400)
Fernbrook section of Randolph | Change Station
CLOSE
Current Station
Personal Weather Station
Location: Randolph, NJ
Elevation: 965 ft
Nearby Weather Stations

Elev 965 ft 40.87 °N, 74.59 °W | Updated 9 minutes ago

Overcast
Overcast
62.6 °F
Feels Like 62.6 °F
N
10.9
Wind Variable Wind from WNW

Today
High -- | Low -- °F
--% Chance of Precip.
Yesterday
High -- | Low -- °F
Precip. -- in
6:45 AM 6:55 PM
Waning Crescent, 2% visible
Pressure 29.90 in
Visibility 10.0 miles
Clouds Mostly Cloudy 3400 ft
Dew Point 51 °F
Humidity 65%
Rainfall 0.00 in
Snow Depth Not available.
UV 3 out of 12
Pollen 4.00 out of 12
PM2.5 Good
Flu Activity Not available.
METAR KMMU 221445Z 31009G21KT 10SM BKN034 19/11 A2990

More Conditions Fewer Conditions

Pressure 29.90 in
Visibility 10.0 miles
Clouds Mostly Cloudy 3400 ft
Dew Point 51 °F
Humidity 65%
Rainfall 0.00 in
Snow Depth Not available.
UV 3 out of 12
Pollen 4.00 out of 12
PM2.5 Good
Flu Activity Not available.
METAR KMMU 221445Z 31009G21KT 10SM BKN034 19/11 A2990

More Conditions Fewer Conditions

10-Day Weather Forecast

Almanac

Astronomy

Sep. 22, 2014 Rise Set
Actual Time 6:45 AM EDT 6:55 PM EDT
Civil Twilight 6:18 AM EDT 7:22 PM EDT
Nautical Twilight 5:46 AM EDT 7:54 PM EDT
Astronomical Twilight 5:13 AM EDT 8:27 PM EDT
Moon 5:11 AM EDT 6:02 PM EDT
Length of Visible Light 13h 04m
Length of Day
12h 09m
Tomorrow will be 2m 41s shorter.
Waning Crescent, 2% of the Moon is Illuminated
Today
Waning Crescent
Sep 24
New
Oct 1
First Quarter
Oct 8
Full
Oct 15
Last Quarter

Today's Extremes

State Highs State Lows

Community

WunderPhotos

Upload Photos

1,755,467 photos uploaded!

Nearby

Air Quality

  Air Quality AQ Index Pollutant
Yesterday Good
PM2.5
Yesterday Good
OZONE
Current Good
PM2.5
Monday Good
PM2.5
Monday Good
OZONE

Snow Depth

Station Depth Elevation
No new snow has been reported.

Earthquake Activity

City Distance Mag. Time & Date
No recent earthquake activity has been reported nearby.
Minimum magnitude displayed is 2.5.

Coastal Water Temperatures

Place Temperature
Sandy Hook, NJ 69.1 °F
The Battery, NY 70.0 °F
Bergen Point West Reach, NJ 70.0 °F
Kings Point, NY 68.0 °F

Nearby Weather Stations